Time;durP1;ratioP1;P1;durP2;ratioP2;P2;SDS_P1;SDS_P2;PMS_P1;PMS_P2;Temp;Humidity;BMP_temperature;BMP_pressure;BME280_temperature;BME280_humidity;BME280_pressure;Samples;Min_cycle;Max_cycle;Signal;HPM_P1;HPM_P2
2023/06/01 00:03:03;;;;;;;3.28;1.25;;;;;;;11.94;81.87;100011.47;10270155;28;20134;-83
2023/06/01 00:08:06;;;;;;;4.32;1.17;;;;;;;11.99;82.38;100021.56;10280368;28;20058;-84
2023/06/01 00:13:09;;;;;;;4.85;1.48;;;;;;;12.08;82.31;100014.22;10247744;28;20054;-84
2023/06/01 00:18:12;;;;;;;2.22;1.33;;;;;;;12.01;82.30;100022.88;10258696;28;20079;-84
2023/06/01 00:23:19;;;;;;;3.45;1.48;;;;;;;12.17;81.89;100020.66;10277429;28;20519;-83
2023/06/01 00:28:22;;;;;;;5.40;1.35;;;;;;;12.20;81.75;100020.03;10243793;28;20055;-84
2023/06/01 00:33:24;;;;;;;5.28;1.90;;;;;;;12.10;81.25;100011.16;10262071;28;20045;-84
2023/06/01 00:38:30;;;;;;;3.42;1.55;;;;;;;12.02;82.40;100007.22;10295996;28;20043;-83
2023/06/01 00:43:32;;;;;;;4.22;1.63;;;;;;;11.93;82.42;100012.59;10281243;28;20035;-83
2023/06/01 00:48:34;;;;;;;2.78;2.05;;;;;;;11.96;83.03;100013.91;10254542;28;20050;-84
2023/06/01 00:53:37;;;;;;;3.70;1.38;;;;;;;12.01;82.95;100011.88;10256020;28;20404;-84
2023/06/01 00:58:40;;;;;;;3.13;1.27;;;;;;;11.99;82.65;100010.56;10278346;28;20051;-84
2023/06/01 01:03:46;;;;;;;2.53;1.38;;;;;;;12.01;82.58;99997.34;10255703;28;20043;-83
2023/06/01 01:09:17;;;;;;;4.43;1.40;;;;;;;12.05;82.50;99999.16;10268506;28;20039;-83
2023/06/01 01:14:27;;;;;;;2.55;1.45;;;;;;;12.12;81.71;99987.72;10252405;29;20051;-83
2023/06/01 01:19:50;;;;;;;7.25;1.80;;;;;;;12.05;81.66;99988.16;10260203;29;20043;-84
2023/06/01 01:25:25;;;;;;;2.15;1.40;;;;;;;12.07;81.83;100001.59;10266559;28;20039;-83
2023/06/01 01:30:29;;;;;;;2.40;1.40;;;;;;;11.89;81.15;100003.31;10282490;28;20532;-84
2023/06/01 01:35:33;;;;;;;2.13;1.52;;;;;;;11.92;81.23;100001.91;10260550;28;21065;-83
2023/06/01 01:40:35;;;;;;;4.00;1.45;;;;;;;11.92;81.40;100008.22;10273113;28;20043;-84
2023/06/01 01:45:39;;;;;;;4.40;1.50;;;;;;;11.99;80.94;100002.31;10273105;28;20544;-84
2023/06/01 01:50:50;;;;;;;3.60;1.23;;;;;;;11.85;80.61;99993.25;10299055;28;20496;-83
2023/06/01 01:55:55;;;;;;;3.40;1.30;;;;;;;11.78;80.14;99999.09;10291899;28;20087;-83
2023/06/01 02:00:59;;;;;;;2.90;1.30;;;;;;;11.91;79.25;99992.03;10276089;28;20411;-84
2023/06/01 02:06:01;;;;;;;2.33;1.25;;;;;;;11.99;78.68;99991.31;10299047;28;20057;-84
2023/06/01 02:11:04;;;;;;;1.65;1.10;;;;;;;11.94;78.71;99986.72;10273612;28;20050;-83
2023/06/01 02:16:07;;;;;;;2.38;1.33;;;;;;;11.81;78.65;99986.75;10254029;28;20035;-84
2023/06/01 02:21:11;;;;;;;3.60;1.30;;;;;;;11.84;78.04;99983.38;10276098;28;20535;-84
2023/06/01 02:26:13;;;;;;;2.60;1.42;;;;;;;11.97;76.89;99982.53;10240989;28;20047;-84
2023/06/01 02:31:15;;;;;;;2.22;1.20;;;;;;;11.99;77.42;99980.31;10294697;28;20412;-84
2023/06/01 02:36:18;;;;;;;2.47;1.30;;;;;;;12.19;75.76;99981.81;10253605;28;20047;-84
2023/06/01 02:41:21;;;;;;;2.45;1.35;;;;;;;12.12;75.73;99982.22;10252829;28;20550;-84
2023/06/01 02:46:24;;;;;;;4.38;1.90;;;;;;;12.14;75.86;99982.72;10269331;28;20047;-83
2023/06/01 02:51:27;;;;;;;1.88;1.40;;;;;;;12.37;75.06;99980.88;10257988;28;20059;-83
2023/06/01 02:56:39;;;;;;;3.03;1.70;;;;;;;12.48;74.20;99992.44;10263477;28;20031;-84
2023/06/01 03:01:47;;;;;;;5.03;1.92;;;;;;;12.59;73.29;99991.09;10268624;29;20047;-83
2023/06/01 03:06:51;;;;;;;5.07;2.30;;;;;;;12.45;73.59;99993.06;10234420;28;20047;-83
2023/06/01 03:12:17;;;;;;;3.13;1.67;;;;;;;12.41;74.09;99992.06;10231027;28;20047;-84
2023/06/01 03:17:20;;;;;;;4.72;1.80;;;;;;;12.45;73.05;99987.56;10229982;29;20055;-84
2023/06/01 03:22:23;;;;;;;3.28;1.63;;;;;;;12.43;73.10;99984.31;10269645;28;20043;-84
2023/06/01 03:27:25;;;;;;;2.92;1.70;;;;;;;12.38;72.52;99985.25;10252845;28;20043;-83
2023/06/01 03:32:28;;;;;;;2.17;1.40;;;;;;;12.48;72.69;99990.50;10222448;29;20043;-83
2023/06/01 03:37:31;;;;;;;3.10;1.50;;;;;;;12.50;72.00;99985.53;10238504;28;20046;-83
2023/06/01 03:42:35;;;;;;;2.08;1.50;;;;;;;12.50;72.78;99980.03;10255166;28;20046;-84
2023/06/01 03:47:38;;;;;;;3.25;1.30;;;;;;;12.60;71.57;99966.03;10245981;29;20044;-83
2023/06/01 03:52:40;;;;;;;2.40;1.30;;;;;;;12.91;71.01;99957.84;10249643;28;20051;-83
2023/06/01 03:57:44;;;;;;;3.13;1.20;;;;;;;12.98;69.72;99951.88;10242909;29;20051;-83
2023/06/01 04:02:49;;;;;;;1.90;1.20;;;;;;;12.98;69.80;99951.88;10247329;28;20516;-83
2023/06/01 04:07:54;;;;;;;4.40;1.30;;;;;;;12.95;69.58;99956.09;10266156;28;20040;-85
2023/06/01 04:12:57;;;;;;;4.05;1.30;;;;;;;12.98;69.63;99955.47;10288955;28;20492;-83
2023/06/01 04:18:03;;;;;;;1.13;1.00;;;;;;;13.04;69.78;99955.34;10251297;29;20051;-83
2023/06/01 04:23:22;;;;;;;2.33;1.00;;;;;;;13.18;69.29;99950.59;10250280;28;20039;-83
2023/06/01 04:28:26;;;;;;;2.00;1.10;;;;;;;13.26;68.96;99939.63;10256183;28;20054;-84
2023/06/01 04:33:29;;;;;;;2.92;1.35;;;;;;;13.38;69.12;99943.75;10263375;28;20106;-82
2023/06/01 04:38:32;;;;;;;2.83;1.20;;;;;;;13.38;68.59;99944.56;10277550;28;20531;-83
2023/06/01 04:43:35;;;;;;;1.33;1.02;;;;;;;13.51;68.11;99937.31;10252992;28;20043;-83
2023/06/01 04:48:38;;;;;;;1.10;1.00;;;;;;;13.63;68.15;99939.47;10264101;28;20050;-83
2023/06/01 04:53:41;;;;;;;3.03;0.80;;;;;;;13.70;68.82;99926.03;10268047;28;20043;-83
2023/06/01 04:58:47;;;;;;;2.55;1.20;;;;;;;13.92;69.20;99931.47;10275742;28;20046;-84
2023/06/01 05:03:49;;;;;;;2.35;0.93;;;;;;;13.94;69.49;99925.63;10277682;28;20497;-83
2023/06/01 05:08:51;;;;;;;3.55;1.20;;;;;;;14.05;70.07;99926.94;10250827;28;20046;-83
2023/06/01 05:14:01;;;;;;;7.25;1.02;;;;;;;14.14;69.41;99920.31;10262681;28;20070;-83
2023/06/01 05:19:03;;;;;;;1.52;0.90;;;;;;;14.02;69.28;99925.63;10287568;28;20046;-84
2023/06/01 05:24:06;;;;;;;1.75;0.80;;;;;;;13.99;69.16;99920.75;10274037;28;20448;-83
2023/06/01 05:29:08;;;;;;;0.98;0.68;;;;;;;13.99;67.41;99915.25;10288029;28;20039;-84
2023/06/01 05:34:11;;;;;;;2.67;1.00;;;;;;;13.87;67.14;99926.06;10273586;29;20056;-84
2023/06/01 05:39:14;;;;;;;2.40;1.17;;;;;;;13.92;66.37;99920.44;10223337;29;20077;-83
2023/06/01 05:44:19;;;;;;;2.08;1.10;;;;;;;14.01;64.78;99915.72;10271976;29;20047;-83
2023/06/01 05:49:22;;;;;;;2.10;0.80;;;;;;;13.95;64.82;99910.69;10267780;28;20432;-84
2023/06/01 05:54:27;;;;;;;1.50;0.77;;;;;;;14.22;64.45;99912.34;10250679;29;20031;-85
2023/06/01 05:59:29;;;;;;;0.80;0.60;;;;;;;14.36;63.36;99913.00;10253180;28;20045;-84
2023/06/01 06:04:31;;;;;;;1.05;0.60;;;;;;;14.41;61.53;99908.16;10277774;28;20050;-85
2023/06/01 06:09:34;;;;;;;1.38;0.52;;;;;;;14.43;59.62;99916.97;10254729;29;20062;-85
2023/06/01 06:14:36;;;;;;;1.63;0.80;;;;;;;14.55;59.44;99913.53;10270137;29;20039;-84
2023/06/01 06:19:38;;;;;;;1.10;0.52;;;;;;;14.50;59.98;99916.47;10285076;29;20428;-84
2023/06/01 06:24:41;;;;;;;2.03;0.82;;;;;;;14.44;60.23;99926.06;10251146;28;20440;-84
2023/06/01 06:29:44;;;;;;;1.63;0.60;;;;;;;14.37;60.03;99928.44;10253228;28;20516;-84
2023/06/01 06:34:46;;;;;;;0.60;0.50;;;;;;;14.24;61.12;99930.22;10236468;28;20523;-84
2023/06/01 06:39:48;;;;;;;0.68;0.57;;;;;;;13.83;63.43;99925.91;10246207;28;20050;-84
2023/06/01 06:44:51;;;;;;;1.20;1.10;;;;;;;13.68;65.15;99931.03;10275988;28;20043;-85
2023/06/01 06:49:53;;;;;;;1.58;0.90;;;;;;;13.25;67.20;99937.19;10241024;28;20047;-84
2023/06/01 06:54:55;;;;;;;1.58;0.60;;;;;;;12.93;65.57;99941.00;10282644;28;20054;-84
2023/06/01 06:59:57;;;;;;;3.92;0.70;;;;;;;12.89;64.15;99949.09;10267461;28;20046;-84
2023/06/01 07:04:59;;;;;;;0.30;0.30;;;;;;;12.86;64.38;99944.22;10268919;28;20047;-85
2023/06/01 07:10:02;;;;;;;2.72;0.60;;;;;;;12.85;66.05;99945.34;10289361;28;20058;-85
2023/06/01 07:15:05;;;;;;;3.53;0.77;;;;;;;12.79;67.16;99938.31;10309653;28;20057;-86
2023/06/01 07:20:10;;;;;;;4.75;0.63;;;;;;;12.49;67.89;99944.53;10249715;29;20047;-84
2023/06/01 07:25:13;;;;;;;0.60;0.52;;;;;;;12.54;67.55;99948.00;10252133;28;20500;-85
2023/06/01 07:30:16;;;;;;;1.85;0.60;;;;;;;12.72;66.37;99946.22;10248373;28;20069;-85
2023/06/01 07:35:18;;;;;;;2.58;0.50;;;;;;;13.02;65.85;99941.09;10247234;28;20035;-85
2023/06/01 07:40:20;;;;;;;1.77;0.50;;;;;;;13.57;63.46;99930.53;10260524;28;20077;-88
2023/06/01 07:45:23;;;;;;;2.92;0.52;;;;;;;13.93;62.44;99938.59;10257050;28;20047;-89
2023/06/01 07:50:30;;;;;;;4.05;0.57;;;;;;;13.90;61.62;99944.75;10265953;28;20047;-89
2023/06/01 07:55:32;;;;;;;1.35;0.68;;;;;;;13.88;61.46;99941.47;10232794;28;20032;-86
2023/06/01 08:00:35;;;;;;;2.80;0.70;;;;;;;13.94;60.82;99948.50;10226685;28;20043;-86
2023/06/01 08:05:41;;;;;;;1.52;0.50;;;;;;;14.19;59.85;99942.22;10262265;28;20051;-89
2023/06/01 08:10:43;;;;;;;2.47;0.73;;;;;;;14.28;59.19;99941.44;10259877;28;20050;-87
2023/06/01 08:15:47;;;;;;;1.00;0.45;;;;;;;14.40;59.44;99942.41;10263911;28;20038;-86
2023/06/01 08:20:49;;;;;;;1.42;0.40;;;;;;;14.44;58.25;99948.13;10243052;28;20052;-87
2023/06/01 08:25:51;;;;;;;2.03;0.40;;;;;;;14.51;58.34;99964.19;10247961;28;20421;-89
2023/06/01 08:30:53;;;;;;;0.73;0.60;;;;;;;14.88;57.36;99965.50;10246327;28;20047;-87
2023/06/01 08:35:56;;;;;;;1.00;0.73;;;;;;;15.25;57.71;99966.75;10252781;28;20039;-86
2023/06/01 08:41:00;;;;;;;1.83;0.70;;;;;;;16.46;53.81;99964.25;10239695;28;20420;-87
2023/06/01 08:46:03;;;;;;;3.38;0.60;;;;;;;16.48;53.47;99961.13;10246052;28;20043;-87
2023/06/01 08:51:05;;;;;;;3.83;0.63;;;;;;;16.96;51.50;99968.91;10263903;28;20066;-87
2023/06/01 08:56:07;;;;;;;2.13;0.70;;;;;;;16.84;49.76;99950.28;10265035;29;20046;-87
2023/06/01 09:01:18;;;;;;;5.13;0.55;;;;;;;17.42;48.33;99965.03;10262465;28;20420;-86
2023/06/01 09:06:21;;;;;;;2.25;0.50;;;;;;;17.96;46.35;99961.31;10260549;28;20038;-86
2023/06/01 09:11:23;;;;;;;3.35;0.52;;;;;;;18.53;43.98;99963.09;10248260;28;20039;-86
2023/06/01 09:16:38;;;;;;;5.50;0.70;;;;;;;18.11;42.57;99970.91;10259822;28;20050;-86
2023/06/01 09:21:40;;;;;;;0.50;0.40;;;;;;;17.27;44.05;99974.00;10247577;28;20464;-87
2023/06/01 09:26:43;;;;;;;1.50;0.70;;;;;;;16.92;45.24;99970.75;10247365;28;20043;-87
2023/06/01 09:31:49;;;;;;;5.43;0.95;;;;;;;16.29;46.41;99983.75;10229807;28;20536;-86
2023/06/01 09:36:54;;;;;;;1.65;0.68;;;;;;;15.72;46.88;99997.22;10263295;28;20040;-86
2023/06/01 09:42:01;;;;;;;2.35;0.63;;;;;;;15.34;47.80;99996.00;10262382;28;20408;-87
2023/06/01 09:47:05;;;;;;;3.08;0.77;;;;;;;15.16;47.61;99999.13;10247819;28;20060;-86
2023/06/01 09:52:14;;;;;;;4.65;0.90;;;;;;;14.63;48.06;100005.81;10230111;28;20055;-87
2023/06/01 09:57:22;;;;;;;6.35;1.10;;;;;;;14.31;49.61;100015.28;10262733;28;20042;-87
2023/06/01 10:02:33;;;;;;;3.67;1.02;;;;;;;13.79;51.85;100017.88;10265414;28;20058;-87
2023/06/01 10:07:39;;;;;;;4.68;1.30;;;;;;;13.32;54.05;100025.72;10236981;28;20055;-86
2023/06/01 10:12:44;;;;;;;4.22;0.90;;;;;;;12.97;55.54;100043.91;10274826;28;20086;-87
2023/06/01 10:17:48;;;;;;;4.03;0.88;;;;;;;13.01;55.48;100052.34;10253368;28;20030;-86
2023/06/01 10:22:51;;;;;;;2.47;0.88;;;;;;;12.96;54.29;100048.59;10267575;28;20035;-85
2023/06/01 10:28:00;;;;;;;2.28;0.65;;;;;;;12.77;53.25;100058.16;10250970;28;20043;-85
2023/06/01 10:33:02;;;;;;;2.80;0.88;;;;;;;12.57;54.07;100046.47;10246594;28;20050;-89
2023/06/01 10:38:12;;;;;;;2.75;0.85;;;;;;;12.73;53.95;100068.16;10237406;29;20054;-87
2023/06/01 10:43:37;;;;;;;8.85;1.23;;;;;;;12.62;54.85;100070.31;10251914;28;20031;-86
2023/06/01 10:48:55;;;;;;;2.08;0.88;;;;;;;12.73;54.52;100070.91;10240706;28;20424;-85
2023/06/01 10:54:29;;;;;;;3.58;0.93;;;;;;;13.20;54.66;100047.53;10249844;28;20500;-85
2023/06/01 10:59:31;;;;;;;5.30;1.10;;;;;;;13.23;53.28;100052.41;10242963;28;20035;-87
2023/06/01 11:04:37;;;;;;;3.83;1.70;;;;;;;12.88;53.56;100073.31;10237828;28;20062;-88
2023/06/01 11:09:44;;;;;;;4.07;1.08;;;;;;;13.03;54.40;100080.41;10260968;28;20536;-87
2023/06/01 11:15:11;;;;;;;5.40;1.10;;;;;;;13.54;53.93;100072.56;10250342;28;20500;-86
2023/06/01 11:20:14;;;;;;;8.77;1.10;;;;;;;13.60;53.52;100076.00;10254902;29;20562;-90
2023/06/01 11:25:17;;;;;;;5.45;1.00;;;;;;;13.51;53.33;100069.59;10257809;28;20035;-87
2023/06/01 11:30:20;;;;;;;8.23;1.02;;;;;;;13.80;52.81;100078.22;10270552;28;20039;-86
2023/06/01 11:35:22;;;;;;;3.75;1.60;;;;;;;14.06;52.55;100097.69;10248020;28;20409;-87
2023/06/01 11:40:25;;;;;;;7.68;1.30;;;;;;;13.90;53.03;100092.88;10262297;28;20047;-88
2023/06/01 11:45:28;;;;;;;5.32;0.70;;;;;;;13.71;52.17;100109.63;10280789;28;20417;-87
2023/06/01 11:50:31;;;;;;;1.50;0.70;;;;;;;13.42;52.70;100104.59;10252779;28;20047;-87
2023/06/01 11:55:34;;;;;;;1.65;1.00;;;;;;;13.34;52.54;100113.59;10243507;29;20050;-86
2023/06/01 12:00:38;;;;;;;2.67;0.80;;;;;;;13.46;51.89;100114.66;10241859;28;20039;-89
2023/06/01 12:05:50;;;;;;;3.20;0.98;;;;;;;13.75;50.52;100113.41;10264901;28;20047;-86
2023/06/01 12:10:52;;;;;;;2.47;0.65;;;;;;;13.46;50.98;100122.94;10266075;29;20043;-85
2023/06/01 12:15:55;;;;;;;2.78;0.98;;;;;;;13.21;51.50;100115.28;10249973;29;20054;-92
2023/06/01 12:20:57;;;;;;;2.55;0.68;;;;;;;13.38;52.00;100106.34;10253421;28;20062;-87
2023/06/01 12:26:00;;;;;;;5.10;1.38;;;;;;;13.55;51.25;100120.25;10250921;28;20035;-87
2023/06/01 12:31:10;;;;;;;3.83;0.95;;;;;;;13.20;51.81;100143.97;10248301;29;20086;-87
2023/06/01 12:36:38;;;;;;;3.22;0.90;;;;;;;12.42;52.98;100180.81;10249408;29;20047;-87
2023/06/01 12:41:51;;;;;;;6.63;0.75;;;;;;;12.07;54.08;100189.41;10271204;28;20151;-88
2023/06/01 12:46:58;;;;;;;2.38;0.73;;;;;;;11.71;53.86;100180.09;10256846;29;20027;-85
2023/06/01 12:52:01;;;;;;;2.55;0.70;;;;;;;11.84;53.80;100184.06;10266246;29;20058;-87
2023/06/01 12:57:12;;;;;;;1.75;0.80;;;;;;;11.90;53.14;100191.09;10268250;28;20106;-88
2023/06/01 13:02:21;;;;;;;0.68;0.60;;;;;;;11.93;53.39;100190.50;10247398;29;20051;-93
2023/06/01 13:07:32;;;;;;;3.95;0.73;;;;;;;11.90;53.00;100186.41;10257343;29;20058;-92
2023/06/01 13:12:34;;;;;;;3.22;0.82;;;;;;;12.08;52.99;100184.72;10236086;29;20043;-90
2023/06/01 13:17:36;;;;;;;1.83;0.70;;;;;;;12.13;53.10;100198.38;10251232;28;20408;-87
2023/06/01 13:22:39;;;;;;;1.73;0.88;;;;;;;12.27;51.37;100182.72;10264675;28;20081;-88
2023/06/01 13:27:41;;;;;;;1.52;0.88;;;;;;;12.55;50.14;100185.50;10250027;29;20416;-90
2023/06/01 13:32:44;;;;;;;4.38;0.75;;;;;;;12.96;49.09;100178.03;10236069;28;20043;-90
2023/06/01 13:37:47;;;;;;;2.63;1.00;;;;;;;13.16;47.81;100179.53;10257801;29;20031;-88
2023/06/01 13:42:52;;;;;;;4.32;1.05;;;;;;;13.12;46.78;100189.53;10276032;28;20584;-89
2023/06/01 13:47:55;;;;;;;1.77;0.98;;;;;;;13.24;47.09;100205.59;10241513;28;20055;-87
2023/06/01 13:52:57;;;;;;;3.15;0.88;;;;;;;12.89;46.51;100209.88;10255498;28;20051;-89
2023/06/01 13:57:59;;;;;;;5.70;1.95;;;;;;;12.80;47.18;100193.25;10248103;28;20042;-87
2023/06/01 14:03:01;;;;;;;5.40;1.65;;;;;;;12.73;46.59;100209.38;10259729;28;20062;-89
2023/06/01 14:08:04;;;;;;;0.80;0.80;;;;;;;12.45;46.34;100219.53;10285366;28;20050;-87
2023/06/01 14:13:06;;;;;;;3.88;0.85;;;;;;;12.33;46.76;100220.06;10255234;28;20042;-87
2023/06/01 14:18:09;;;;;;;2.55;1.20;;;;;;;12.40;47.29;100214.13;10265772;28;20570;-87
2023/06/01 14:23:11;;;;;;;2.55;1.10;;;;;;;12.22;46.21;100226.84;10239080;28;20046;-88
2023/06/01 14:28:13;;;;;;;6.68;1.10;;;;;;;12.07;47.07;100225.16;10272953;28;20035;-89
2023/06/01 14:33:16;;;;;;;1.13;0.90;;;;;;;11.99;47.95;100238.81;10267473;28;20069;-88
2023/06/01 14:38:18;;;;;;;3.17;0.95;;;;;;;12.25;48.63;100237.22;10250122;28;20051;-86
2023/06/01 14:43:21;;;;;;;5.88;1.00;;;;;;;12.42;47.84;100241.34;10265919;28;20419;-88
2023/06/01 14:48:23;;;;;;;4.65;1.05;;;;;;;12.31;46.72;100241.50;10232752;28;20142;-86
2023/06/01 14:53:25;;;;;;;3.03;0.80;;;;;;;12.09;45.53;100252.38;10273612;28;20511;-88
2023/06/01 14:58:28;;;;;;;3.30;1.00;;;;;;;12.12;46.60;100262.75;10275809;28;20046;-89
2023/06/01 15:03:30;;;;;;;2.22;0.73;;;;;;;12.16;47.24;100255.56;10270534;28;20047;-88
2023/06/01 15:08:32;;;;;;;5.03;0.80;;;;;;;12.28;46.99;100263.31;10260257;28;20500;-88
2023/06/01 15:13:34;;;;;;;1.13;0.80;;;;;;;12.24;46.48;100257.63;10259181;28;20043;-90
2023/06/01 15:18:37;;;;;;;5.47;1.17;;;;;;;12.11;46.63;100269.38;10256609;28;20564;-87
2023/06/01 15:23:43;;;;;;;2.78;0.60;;;;;;;12.18;46.40;100260.75;10266673;28;20043;-90
2023/06/01 15:28:45;;;;;;;3.58;0.70;;;;;;;12.19;46.91;100260.47;10264038;28;20055;-87
2023/06/01 15:33:47;;;;;;;2.67;0.60;;;;;;;12.02;46.45;100261.00;10251164;28;20042;-88
2023/06/01 15:38:49;;;;;;;1.75;0.70;;;;;;;11.86;47.36;100273.38;10262687;28;20049;-88
2023/06/01 15:43:52;;;;;;;1.35;0.80;;;;;;;11.74;48.03;100267.47;10268330;28;20063;-83
2023/06/01 15:48:54;;;;;;;4.30;1.13;;;;;;;11.64;48.19;100276.69;10251083;28;20078;-85
2023/06/01 15:53:56;;;;;;;2.55;0.80;;;;;;;11.48;47.30;100273.34;10264524;28;20420;-84
2023/06/01 15:58:58;;;;;;;3.22;0.70;;;;;;;11.47;46.80;100266.22;10267402;28;20035;-84
2023/06/01 16:04:01;;;;;;;1.40;0.60;;;;;;;11.54;47.16;100271.34;10262159;28;20076;-84
2023/06/01 16:09:03;;;;;;;2.53;0.90;;;;;;;11.61;46.04;100280.00;10264834;29;20027;-85
2023/06/01 16:14:06;;;;;;;1.00;0.70;;;;;;;11.39;45.66;100282.53;10277212;29;20301;-85
2023/06/01 16:19:08;;;;;;;2.25;1.20;;;;;;;11.24;47.16;100277.22;10266911;28;20039;-84
2023/06/01 16:24:10;;;;;;;1.38;0.85;;;;;;;11.19;47.46;100275.38;10282614;28;20073;-84
2023/06/01 16:29:12;;;;;;;2.78;1.20;;;;;;;11.14;47.47;100281.75;10244809;28;20043;-85
2023/06/01 16:34:14;;;;;;;1.10;0.82;;;;;;;11.14;47.22;100273.53;10273659;28;20337;-84
2023/06/01 16:39:17;;;;;;;2.22;0.88;;;;;;;11.22;47.00;100282.19;10280048;28;20038;-85
2023/06/01 16:44:19;;;;;;;2.50;0.90;;;;;;;11.45;46.83;100284.09;10279876;28;20407;-85
2023/06/01 16:49:24;;;;;;;3.50;1.42;;;;;;;11.35;47.19;100290.56;10282957;28;20054;-84
2023/06/01 16:54:26;;;;;;;3.63;0.90;;;;;;;11.28;45.94;100284.59;10282483;28;20062;-84
2023/06/01 16:59:28;;;;;;;2.05;0.70;;;;;;;11.17;45.35;100277.59;10252602;28;20035;-84
2023/06/01 17:04:30;;;;;;;1.90;0.80;;;;;;;11.28;44.88;100281.00;10263660;28;20085;-84
2023/06/01 17:09:32;;;;;;;2.40;1.10;;;;;;;11.06;45.31;100279.66;10281197;28;20047;-85
2023/06/01 17:14:35;;;;;;;2.03;0.90;;;;;;;11.00;45.27;100283.56;10275578;28;20059;-85
2023/06/01 17:19:37;;;;;;;1.88;0.93;;;;;;;10.96;46.26;100287.19;10295590;28;20040;-82
2023/06/01 17:24:39;;;;;;;4.90;1.13;;;;;;;10.66;47.25;100274.63;10278543;28;20039;-86
2023/06/01 17:29:41;;;;;;;3.10;0.65;;;;;;;10.50;48.17;100282.19;10322519;28;20046;-85
2023/06/01 17:34:44;;;;;;;2.92;0.90;;;;;;;10.45;48.32;100280.31;10283495;28;20050;-84
2023/06/01 17:39:46;;;;;;;4.85;1.08;;;;;;;10.46;48.17;100290.19;10273954;28;20455;-84
2023/06/01 17:44:49;;;;;;;1.77;1.00;;;;;;;10.18;49.28;100279.97;10313341;28;20087;-83
2023/06/01 17:49:53;;;;;;;1.55;0.70;;;;;;;10.12;49.55;100289.34;10264594;28;20417;-84
2023/06/01 17:54:56;;;;;;;2.42;0.75;;;;;;;10.13;50.46;100285.50;10276387;28;20047;-84
2023/06/01 17:59:58;;;;;;;1.88;0.85;;;;;;;10.41;50.90;100290.25;10294485;28;20050;-85
2023/06/01 18:05:00;;;;;;;2.10;0.90;;;;;;;10.55;50.53;100280.19;10236809;28;20429;-85
2023/06/01 18:10:03;;;;;;;1.67;1.02;;;;;;;10.38;53.03;100301.75;10264854;28;20559;-83
2023/06/01 18:15:06;;;;;;;5.35;0.80;;;;;;;10.19;57.15;100318.06;10262267;28;20086;-87
2023/06/01 18:20:09;;;;;;;2.90;0.90;;;;;;;9.22;57.72;100345.22;10264304;28;20046;-87
2023/06/01 18:25:12;;;;;;;10.10;0.88;;;;;;;8.21;62.30;100331.69;10247842;29;20039;-89
2023/06/01 18:30:15;;;;;;;6.18;0.88;;;;;;;7.70;64.45;100337.91;10262967;28;20035;-89
2023/06/01 18:35:18;;;;;;;3.08;0.73;;;;;;;7.56;66.99;100342.22;10262873;28;20131;-88
2023/06/01 18:40:21;;;;;;;1.65;0.88;;;;;;;7.82;68.04;100362.25;10260003;28;20039;-86
2023/06/01 18:45:24;;;;;;;3.05;0.90;;;;;;;7.69;68.58;100349.09;10254419;28;20031;-89
2023/06/01 18:50:31;;;;;;;1.15;0.60;;;;;;;7.83;69.68;100352.94;10300860;28;20054;-88
2023/06/01 18:55:33;;;;;;;1.63;0.77;;;;;;;7.83;69.04;100339.28;10312760;28;20115;-86
2023/06/01 19:00:35;;;;;;;2.08;1.23;;;;;;;8.01;70.16;100335.22;10248499;28;20474;-90
2023/06/01 19:05:37;;;;;;;2.20;0.90;;;;;;;7.99;69.78;100334.69;10242351;28;20066;-87
2023/06/01 19:11:03;;;;;;;1.75;1.27;;;;;;;7.82;69.96;100330.28;10222794;29;20068;-87
2023/06/01 19:16:23;;;;;;;3.15;1.15;;;;;;;7.65;69.96;100337.06;10286178;28;20527;-87
2023/06/01 19:21:31;;;;;;;1.83;1.30;;;;;;;7.72;70.36;100337.63;10264346;29;20635;-87
2023/06/01 19:26:33;;;;;;;;;;;;;;;7.57;69.61;100341.94;10294569;28;20043;-88
2023/06/01 19:31:45;;;;;;;2.67;1.02;;;;;;;7.54;71.16;100347.94;10271907;28;20406;-88
2023/06/01 19:36:50;;;;;;;2.67;0.95;;;;;;;7.68;70.89;100337.34;10279072;29;20144;-89
2023/06/01 19:41:59;;;;;;;4.30;1.42;;;;;;;7.69;70.39;100346.34;10261564;29;20050;-89
2023/06/01 19:47:05;;;;;;;1.48;1.20;;;;;;;7.55;71.02;100354.22;10273964;28;20416;-90
2023/06/01 19:52:13;;;;;;;2.85;1.30;;;;;;;7.53;72.00;100361.88;10234680;28;20043;-90
2023/06/01 19:57:18;;;;;;;2.38;1.10;;;;;;;7.48;71.07;100370.88;10231782;28;20054;-89
2023/06/01 20:02:43;;;;;;;1.50;0.90;;;;;;;7.13;70.65;100373.44;10243085;29;20451;-89
2023/06/01 20:07:57;;;;;;;2.03;1.05;;;;;;;6.86;70.68;100377.09;10257045;28;20046;-87
2023/06/01 20:13:03;;;;;;;1.77;0.90;;;;;;;6.64;69.44;100373.66;10266537;28;20031;-90
2023/06/01 20:18:07;;;;;;;1.48;0.88;;;;;;;6.44;67.92;100379.78;10239431;29;20090;-89
2023/06/01 20:23:10;;;;;;;1.48;0.73;;;;;;;6.35;67.38;100393.06;10224888;29;20054;-88
2023/06/01 20:28:14;;;;;;;1.15;0.70;;;;;;;6.25;67.98;100405.78;10231508;28;20051;-90
2023/06/01 20:33:23;;;;;;;1.25;0.60;;;;;;;6.16;68.39;100416.31;10248271;28;20041;-89
2023/06/01 20:38:25;;;;;;;1.95;0.80;;;;;;;6.16;69.04;100416.31;10284731;28;20050;-89
2023/06/01 20:43:30;;;;;;;1.90;0.98;;;;;;;6.11;69.11;100419.00;10258740;28;20078;-89
2023/06/01 20:48:52;;;;;;;2.47;0.80;;;;;;;6.08;69.75;100435.88;10248848;28;20043;-90
2023/06/01 20:54:06;;;;;;;1.20;0.70;;;;;;;6.32;69.40;100439.91;10251424;28;20049;-89
2023/06/01 20:59:11;;;;;;;0.98;0.50;;;;;;;6.35;69.05;100436.66;10265442;28;20035;-90
2023/06/01 21:04:28;;;;;;;2.22;0.90;;;;;;;6.35;68.77;100442.09;10277319;28;20420;-89
2023/06/01 21:09:32;;;;;;;1.60;0.65;;;;;;;6.49;69.21;100447.16;10260056;28;20027;-88
2023/06/01 21:14:36;;;;;;;2.20;0.65;;;;;;;6.23;69.47;100455.06;10286873;28;20062;-90
2023/06/01 21:19:38;;;;;;;0.80;0.80;;;;;;;6.10;69.90;100460.94;10260082;28;20043;-89
2023/06/01 21:24:40;;;;;;;1.38;0.68;;;;;;;5.95;70.54;100471.66;10278849;28;20047;-88
2023/06/01 21:29:42;;;;;;;1.30;0.40;;;;;;;5.67;70.78;100478.09;10234001;28;20043;-89
2023/06/01 21:34:45;;;;;;;1.05;0.68;;;;;;;5.49;70.49;100479.22;10264654;28;20050;-89
2023/06/01 21:39:48;;;;;;;1.40;0.65;;;;;;;5.44;71.42;100484.59;10278633;28;20528;-89
2023/06/01 21:44:58;;;;;;;0.85;0.50;;;;;;;5.47;70.28;100489.53;10267101;28;20039;-91
2023/06/01 21:50:01;;;;;;;1.83;0.68;;;;;;;5.44;70.48;100490.84;10245333;28;20053;-93
2023/06/01 21:55:06;;;;;;;1.60;0.50;;;;;;;5.32;70.48;100500.19;10255466;28;20071;-90
2023/06/01 22:00:15;;;;;;;1.77;0.50;;;;;;;5.35;71.17;100503.22;10265320;28;20066;-91
2023/06/01 22:05:18;;;;;;;0.60;0.40;;;;;;;5.36;69.75;100496.72;10258636;28;20049;-91
2023/06/01 22:10:20;;;;;;;3.15;0.65;;;;;;;5.23;69.80;100505.25;10281379;28;20420;-91
2023/06/01 22:15:23;;;;;;;1.60;0.77;;;;;;;5.40;69.73;100513.38;10266230;28;20058;-86
2023/06/01 22:20:25;;;;;;;1.00;0.80;;;;;;;5.32;69.70;100502.91;10288320;28;20039;-86
2023/06/01 22:25:28;;;;;;;1.00;0.80;;;;;;;5.27;70.26;100511.00;10249607;28;20043;-83
2023/06/01 22:30:30;;;;;;;0.77;0.77;;;;;;;5.37;69.45;100514.69;10278164;28;20035;-87
2023/06/01 22:35:32;;;;;;;0.90;0.63;;;;;;;5.38;69.04;100512.78;10316451;28;20050;-87
2023/06/01 22:40:35;;;;;;;1.90;0.85;;;;;;;5.32;68.50;100508.34;10250512;28;20043;-88
2023/06/01 22:45:38;;;;;;;1.67;0.45;;;;;;;5.30;68.32;100515.94;10282469;28;20047;-85
2023/06/01 22:50:40;;;;;;;0.43;0.40;;;;;;;5.34;67.97;100523.34;10274280;28;20417;-87
2023/06/01 22:55:43;;;;;;;0.40;0.40;;;;;;;5.27;68.38;100519.16;10271968;29;20047;-85
2023/06/01 23:00:49;;;;;;;0.40;0.40;;;;;;;5.11;67.98;100509.94;10240160;29;20521;-85
2023/06/01 23:05:52;;;;;;;0.52;0.50;;;;;;;5.21;68.37;100521.00;10238669;28;20039;-87
2023/06/01 23:10:55;;;;;;;0.55;0.50;;;;;;;5.28;67.93;100524.34;10266477;29;20051;-85
2023/06/01 23:16:01;;;;;;;1.00;0.60;;;;;;;5.29;67.38;100525.19;10266031;29;20051;-86
2023/06/01 23:21:04;;;;;;;1.35;0.70;;;;;;;5.27;67.69;100532.78;10241016;29;20365;-84
2023/06/01 23:26:08;;;;;;;0.68;0.63;;;;;;;5.15;67.76;100530.94;10226489;28;20039;-86
2023/06/01 23:31:12;;;;;;;1.88;0.63;;;;;;;5.01;68.45;100526.09;10262299;29;20537;-87